createdAt,value
2019-05-02T00:02:14.404Z,66.87
2019-05-02T00:04:51.035Z,67.24
2019-05-02T00:07:21.765Z,67.45
2019-05-02T00:09:53.618Z,67.75
2019-05-02T00:12:25.480Z,67.70
2019-05-02T00:15:01.988Z,67.74
2019-05-02T00:17:34.045Z,67.29
2019-05-02T00:20:08.894Z,67.18
2019-05-02T00:22:41.085Z,67.68
2019-05-02T00:25:16.000Z,67.72
2019-05-02T00:27:48.612Z,67.94
2019-05-02T00:30:20.969Z,67.89
2019-05-02T00:32:53.241Z,67.77
2019-05-02T00:35:26.168Z,67.39
2019-05-02T00:38:02.463Z,67.43
2019-05-02T00:40:31.443Z,67.96
2019-05-02T00:43:04.273Z,67.62
2019-05-02T00:45:36.440Z,67.03
2019-05-02T00:48:13.130Z,66.89
2019-05-02T00:50:50.397Z,66.33
2019-05-02T00:53:18.892Z,66.11
2019-05-02T00:55:50.751Z,66.26
2019-05-02T00:58:22.566Z,66.23
2019-05-02T01:01:29.471Z,65.87
2019-05-02T01:04:01.707Z,66.11
2019-05-02T01:06:34.055Z,66.10
2019-05-02T01:09:11.161Z,66.07
2019-05-02T01:11:40.603Z,66.91
2019-05-02T01:14:12.789Z,66.44
2019-05-02T01:16:44.769Z,66.31
2019-05-02T01:19:17.278Z,66.90
2019-05-02T01:21:48.873Z,66.63
2019-05-02T01:24:20.428Z,66.64
2019-05-02T01:27:04.543Z,66.55
2019-05-02T01:29:43.138Z,66.92
2019-05-02T01:32:39.985Z,67.27
2019-05-02T01:35:20.929Z,67.38
2019-05-02T01:38:17.471Z,68.59
2019-05-02T01:40:53.361Z,68.60
2019-05-02T01:43:27.117Z,68.97
2019-05-02T01:45:59.090Z,68.88
2019-05-02T01:48:30.808Z,68.88
2019-05-02T01:51:04.468Z,68.31
2019-05-02T01:53:36.109Z,68.58
2019-05-02T01:56:07.592Z,68.83
2019-05-02T01:58:39.287Z,69.17
2019-05-02T02:01:10.838Z,69.22
2019-05-02T02:03:45.539Z,69.09
2019-05-02T02:06:16.712Z,68.38
2019-05-02T02:08:48.674Z,68.34
2019-05-02T02:11:20.263Z,68.25
2019-05-02T02:13:52.701Z,68.02
2019-05-02T02:16:24.585Z,68.27
2019-05-02T02:19:05.634Z,68.55
2019-05-02T02:21:47.028Z,68.37
2019-05-02T02:24:25.105Z,68.38
2019-05-02T02:26:58.190Z,68.00
2019-05-02T02:29:30.390Z,68.65
2019-05-02T02:32:02.155Z,68.43
2019-05-02T02:34:34.018Z,67.95
2019-05-02T02:37:12.489Z,67.93
2019-05-02T02:39:39.540Z,67.93
2019-05-02T02:42:11.556Z,67.66
2019-05-02T02:44:55.829Z,67.23
2019-05-02T02:47:28.745Z,67.06
2019-05-02T02:50:02.510Z,67.12
2019-05-02T02:52:37.782Z,66.92
2019-05-02T02:55:07.556Z,66.34
2019-05-02T02:57:39.712Z,65.76
2019-05-02T03:00:11.386Z,65.24
2019-05-02T03:02:48.506Z,64.52
2019-05-02T03:05:18.519Z,64.38
2019-05-02T03:07:51.124Z,63.98
2019-05-02T03:10:22.947Z,63.58
2019-05-02T03:13:28.854Z,63.68
2019-05-02T03:16:06.893Z,63.50
2019-05-02T03:18:40.734Z,63.46
2019-05-02T03:21:13.442Z,63.39
2019-05-02T03:23:42.293Z,62.78
2019-05-02T03:26:15.468Z,62.64
2019-05-02T03:28:57.099Z,62.67
2019-05-02T03:31:25.043Z,62.58
2019-05-02T03:34:00.239Z,62.87
2019-05-02T03:36:35.671Z,62.86
2019-05-02T03:39:13.395Z,62.86
2019-05-02T03:41:37.894Z,62.72
2019-05-02T03:44:11.879Z,62.95
2019-05-02T03:46:44.106Z,62.93
2019-05-02T03:49:16.069Z,62.88
2019-05-02T03:51:47.923Z,63.09
2019-05-02T03:54:20.310Z,62.81
2019-05-02T03:56:53.451Z,63.23
2019-05-02T03:59:37.263Z,62.94
2019-05-02T04:01:59.852Z,62.92
2019-05-02T04:04:31.193Z,63.15
2019-05-02T04:07:03.605Z,62.89
2019-05-02T04:09:41.856Z,62.77
2019-05-02T04:12:18.548Z,62.77
2019-05-02T04:14:45.709Z,63.15
2019-05-02T04:17:18.513Z,63.64
2019-05-02T04:19:50.510Z,63.55
2019-05-02T04:22:22.688Z,63.75
2019-05-02T04:24:56.797Z,63.82
2019-05-02T04:27:34.127Z,63.97
2019-05-02T04:30:10.859Z,63.84
2019-05-02T04:32:36.395Z,64.62
2019-05-02T04:35:07.656Z,64.50
2019-05-02T04:37:41.254Z,64.47
2019-05-02T04:40:13.533Z,64.49
2019-05-02T04:42:51.260Z,64.23
2019-05-02T04:45:26.449Z,64.30
2019-05-02T04:47:58.614Z,63.80
2019-05-02T04:50:25.637Z,64.09
2019-05-02T04:52:59.279Z,64.21
2019-05-02T04:55:33.366Z,64.11
2019-05-02T04:58:08.148Z,64.23
2019-05-02T05:00:44.782Z,64.40
2019-05-02T05:03:15.767Z,64.47
2019-05-02T05:05:47.791Z,64.82
2019-05-02T05:08:26.165Z,64.35
2019-05-02T05:10:51.770Z,64.71
2019-05-02T05:13:26.169Z,64.00
2019-05-02T05:15:57.403Z,64.31
2019-05-02T05:18:30.202Z,64.16
2019-05-02T05:21:02.143Z,64.43
2019-05-02T05:24:01.400Z,64.53
2019-05-02T05:26:38.399Z,64.06
2019-05-02T05:29:08.286Z,64.55
2019-05-02T05:31:40.918Z,64.67
2019-05-02T05:34:12.432Z,65.41
2019-05-02T05:36:43.902Z,64.92
2019-05-02T05:39:17.180Z,65.29
2019-05-02T05:41:52.251Z,64.66
2019-05-02T05:44:30.533Z,64.87
2019-05-02T05:47:00.306Z,64.79
2019-05-02T05:49:31.923Z,64.65
2019-05-02T05:52:04.090Z,65.19
2019-05-02T05:54:42.117Z,65.35
2019-05-02T05:57:19.210Z,65.08
2019-05-02T05:59:48.398Z,64.71
2019-05-02T06:02:19.860Z,65.10
2019-05-02T06:04:55.211Z,65.97
2019-05-02T06:07:24.754Z,65.52
2019-05-02T06:09:56.381Z,65.74
2019-05-02T06:12:30.385Z,65.02
2019-05-02T06:15:03.802Z,64.88
2019-05-02T06:17:34.832Z,65.58
2019-05-02T06:20:06.879Z,65.48
2019-05-02T06:22:38.335Z,65.38
2019-05-02T06:25:11.050Z,65.84
2019-05-02T06:27:42.740Z,65.95
2019-05-02T06:30:15.285Z,66.48
2019-05-02T06:32:50.001Z,66.18
2019-05-02T06:35:21.087Z,66.61
2019-05-02T06:37:52.602Z,66.46
2019-05-02T06:40:23.967Z,66.52
2019-05-02T06:42:55.645Z,66.46
2019-05-02T06:45:27.375Z,66.46
2019-05-02T06:48:01.187Z,66.77
2019-05-02T06:50:33.338Z,66.34
2019-05-02T06:53:09.655Z,65.41
2019-05-02T06:55:39.853Z,66.14
2019-05-02T06:58:12.513Z,66.35
2019-05-02T07:00:56.831Z,66.05
2019-05-02T07:03:17.491Z,66.13
2019-05-02T07:05:49.244Z,65.88
2019-05-02T07:08:21.934Z,66.03
2019-05-02T07:10:59.310Z,66.83
2019-05-02T07:13:26.917Z,66.74
2019-05-02T07:16:37.239Z,66.14
2019-05-02T07:18:57.301Z,66.23
2019-05-02T07:21:29.130Z,66.16
2019-05-02T07:24:00.982Z,65.89
2019-05-02T07:26:32.716Z,66.24
2019-05-02T07:29:04.499Z,66.02
2019-05-02T07:31:36.549Z,66.34
2019-05-02T07:34:12.921Z,66.70
2019-05-02T07:36:42.005Z,66.79
2019-05-02T07:39:13.697Z,66.63
2019-05-02T07:41:45.241Z,65.88
2019-05-02T07:44:17.192Z,65.52
2019-05-02T07:46:51.965Z,65.68
2019-05-02T07:49:21.657Z,65.45
2019-05-02T07:51:57.609Z,65.73
2019-05-02T07:54:26.814Z,65.85
2019-05-02T07:56:58.494Z,66.43
2019-05-02T07:59:30.281Z,66.55
2019-05-02T08:02:01.514Z,66.09
2019-05-02T08:04:32.828Z,65.88
2019-05-02T08:07:04.241Z,66.16
2019-05-02T08:09:39.322Z,66.09
2019-05-02T08:12:11.183Z,65.83
2019-05-02T08:14:42.946Z,66.18
2019-05-02T08:17:17.261Z,66.22
2019-05-02T08:19:48.461Z,66.38
2019-05-02T08:22:19.961Z,66.47
2019-05-02T08:24:52.085Z,66.02
2019-05-02T08:27:43.041Z,65.62
2019-05-02T08:30:21.012Z,65.96
2019-05-02T08:32:52.336Z,66.19
2019-05-02T08:35:24.088Z,66.13
2019-05-02T08:37:56.376Z,66.35
2019-05-02T08:40:27.701Z,65.84
2019-05-02T08:43:03.417Z,66.28
2019-05-02T08:45:37.724Z,66.88
2019-05-02T08:48:06.558Z,66.48
2019-05-02T08:50:37.978Z,66.22
2019-05-02T08:53:14.259Z,66.36
2019-05-02T08:55:45.347Z,66.70
2019-05-02T08:58:17.067Z,67.12
2019-05-02T09:00:48.829Z,66.98
2019-05-02T09:03:20.694Z,66.95
2019-05-02T09:06:04.934Z,66.02
2019-05-02T09:08:25.816Z,66.19
2019-05-02T09:10:57.608Z,66.18
2019-05-02T09:13:29.688Z,65.89
2019-05-02T09:16:05.675Z,65.53
2019-05-02T09:18:38.254Z,65.68
2019-05-02T09:21:07.806Z,65.50
2019-05-02T09:23:41.976Z,65.51
2019-05-02T09:26:13.356Z,65.41
2019-05-02T09:28:45.228Z,65.41
2019-05-02T09:31:16.445Z,64.66
2019-05-02T09:33:48.127Z,65.07
2019-05-02T09:36:20.031Z,64.42
2019-05-02T09:38:55.897Z,64.70
2019-05-02T09:41:26.963Z,64.35
2019-05-02T09:43:59.118Z,65.09
2019-05-02T09:46:32.495Z,65.10
2019-05-02T09:49:10.668Z,65.24
2019-05-02T09:51:36.979Z,64.76
2019-05-02T09:54:09.580Z,64.08
2019-05-02T09:56:42.975Z,64.65
2019-05-02T09:59:26.642Z,64.77
2019-05-02T10:01:49.949Z,65.04
2019-05-02T10:04:22.499Z,64.45
2019-05-02T10:06:53.856Z,64.93
2019-05-02T10:09:27.314Z,64.93
2019-05-02T10:12:01.877Z,65.11
2019-05-02T10:14:33.151Z,64.98
2019-05-02T10:17:07.079Z,64.33
2019-05-02T10:19:41.175Z,64.74
2019-05-02T10:22:12.267Z,64.71
2019-05-02T10:24:44.168Z,64.47
2019-05-02T10:27:17.216Z,64.46
2019-05-02T10:29:49.110Z,65.22
2019-05-02T10:32:22.671Z,64.67
2019-05-02T10:34:56.790Z,64.24
2019-05-02T10:37:32.371Z,64.25
2019-05-02T10:40:02.995Z,64.12
2019-05-02T10:42:35.758Z,64.23
2019-05-02T10:45:12.977Z,64.11
2019-05-02T10:47:42.398Z,63.67
2019-05-02T10:50:22.267Z,63.62
2019-05-02T10:52:53.530Z,63.61
2019-05-02T10:55:25.336Z,62.83
2019-05-02T10:57:57.149Z,61.96
2019-05-02T11:00:33.237Z,62.20
2019-05-02T11:03:19.331Z,62.62
2019-05-02T11:05:57.860Z,62.19
2019-05-02T11:08:28.496Z,62.12
2019-05-02T11:11:02.390Z,61.34
2019-05-02T11:14:00.747Z,61.83
2019-05-02T11:16:43.807Z,62.38
2019-05-02T11:19:31.861Z,63.06
2019-05-02T11:22:03.475Z,62.85
2019-05-02T11:24:35.388Z,62.17
2019-05-02T11:27:08.267Z,62.31
2019-05-02T11:29:39.875Z,63.14
2019-05-02T11:32:12.806Z,62.53
2019-05-02T11:34:44.718Z,62.01
2019-05-02T11:37:16.258Z,62.30
2019-05-02T11:39:52.679Z,62.03
2019-05-02T11:42:25.661Z,62.17
2019-05-02T11:44:55.242Z,62.03
2019-05-02T11:47:26.895Z,61.88
2019-05-02T11:49:58.569Z,61.99
2019-05-02T11:52:32.953Z,61.99
2019-05-02T11:55:03.608Z,62.12
2019-05-02T11:57:35.176Z,61.82
2019-05-02T12:00:08.975Z,60.92
2019-05-02T12:02:59.667Z,60.09
2019-05-02T12:05:43.432Z,60.38
2019-05-02T12:08:15.107Z,59.88
2019-05-02T12:10:46.529Z,59.67
2019-05-02T12:13:18.705Z,59.86
2019-05-02T12:15:51.910Z,59.86
2019-05-02T12:18:23.494Z,58.98
2019-05-02T12:20:55.385Z,59.04
2019-05-02T12:23:27.633Z,58.33
2019-05-02T12:25:59.515Z,56.95
2019-05-02T12:28:32.346Z,57.24
2019-05-02T12:31:08.063Z,57.17
2019-05-02T12:33:42.678Z,56.34
2019-05-02T12:36:14.413Z,55.72
2019-05-02T12:38:46.187Z,55.71
2019-05-02T12:41:22.245Z,55.71
2019-05-02T12:43:52.470Z,53.98
2019-05-02T12:46:24.103Z,53.83
2019-05-02T12:48:55.495Z,53.49
2019-05-02T12:51:27.061Z,54.42
2019-05-02T12:53:58.665Z,55.00
2019-05-02T12:56:29.672Z,54.70
2019-05-02T12:59:02.369Z,55.51
2019-05-02T13:01:34.458Z,55.30
2019-05-02T13:04:12.421Z,56.58
2019-05-02T13:06:43.877Z,56.49
2019-05-02T13:09:14.967Z,56.49
2019-05-02T13:12:06.258Z,56.25
2019-05-02T13:14:38.199Z,56.14
2019-05-02T13:17:09.441Z,56.12
2019-05-02T13:19:55.391Z,56.49
2019-05-02T13:22:32.774Z,55.66
2019-05-02T13:25:10.495Z,55.14
2019-05-02T13:27:47.134Z,54.39
2019-05-02T13:30:24.391Z,53.46
2019-05-02T13:32:59.458Z,53.99
2019-05-02T13:35:37.813Z,52.53
2019-05-02T13:38:09.921Z,52.53
2019-05-02T13:40:45.351Z,53.26
2019-05-02T13:43:16.912Z,52.46
2019-05-02T13:46:08.052Z,52.28
2019-05-02T13:48:40.317Z,52.98
2019-05-02T13:51:12.030Z,53.52
2019-05-02T13:53:56.947Z,53.55
2019-05-02T13:56:47.609Z,53.75
2019-05-02T13:59:22.367Z,53.82
2019-05-02T14:01:55.014Z,53.94
2019-05-02T14:04:26.939Z,54.04
2019-05-02T14:06:59.456Z,53.86
2019-05-02T14:09:53.049Z,53.99
2019-05-02T14:12:54.389Z,53.81
2019-05-02T14:15:29.870Z,53.47
2019-05-02T14:18:02.494Z,54.24
2019-05-02T14:20:37.247Z,54.20
2019-05-02T14:23:07.744Z,54.10
2019-05-02T14:25:39.399Z,54.28
2019-05-02T14:28:12.964Z,53.42
2019-05-02T14:30:46.301Z,53.13
2019-05-02T14:33:23.248Z,53.45
2019-05-02T14:35:55.046Z,53.17
2019-05-02T14:38:27.036Z,53.63
2019-05-02T14:41:06.635Z,53.49
2019-05-02T14:43:56.919Z,53.52
2019-05-02T14:46:35.359Z,53.81
2019-05-02T14:49:02.706Z,54.27
2019-05-02T14:51:36.608Z,54.49
2019-05-02T14:54:08.570Z,54.47
2019-05-02T14:56:52.277Z,54.38
2019-05-02T14:59:24.158Z,54.82
2019-05-02T15:02:05.802Z,54.46
2019-05-02T15:04:32.215Z,54.66
2019-05-02T15:07:04.580Z,54.09
2019-05-02T15:09:37.918Z,54.19
2019-05-02T15:12:15.924Z,54.70
2019-05-02T15:14:43.232Z,54.57
2019-05-02T15:17:14.867Z,55.52
2019-05-02T15:19:46.829Z,56.09
2019-05-02T15:22:18.720Z,56.23
2019-05-02T15:24:50.200Z,57.06
2019-05-02T15:27:22.274Z,57.38
2019-05-02T15:30:00.887Z,60.79
2019-05-02T15:32:46.410Z,64.02
2019-05-02T15:35:38.553Z,64.02
2019-05-02T15:38:14.388Z,64.44
2019-05-02T15:40:49.876Z,64.74
2019-05-02T15:43:16.853Z,64.54
2019-05-02T15:45:49.086Z,64.67
2019-05-02T15:48:27.075Z,64.21
2019-05-02T15:50:55.584Z,64.39
2019-05-02T15:53:33.333Z,64.46
2019-05-02T15:56:04.682Z,64.96
2019-05-02T15:58:36.335Z,66.33
2019-05-02T16:01:17.950Z,66.99
2019-05-02T16:03:52.269Z,67.76
2019-05-02T16:06:30.566Z,68.76
2019-05-02T16:08:56.972Z,68.48
2019-05-02T16:11:28.633Z,68.21
2019-05-02T16:14:02.222Z,68.21
2019-05-02T16:16:36.646Z,68.29
2019-05-02T16:19:07.392Z,68.37
2019-05-02T16:21:44.411Z,68.27
2019-05-02T16:24:23.314Z,68.12
2019-05-02T16:26:57.181Z,67.52
2019-05-02T16:29:29.232Z,67.91
2019-05-02T16:32:21.842Z,67.41
2019-05-02T16:35:16.996Z,67.22
2019-05-02T16:37:54.431Z,67.04
2019-05-02T16:40:29.608Z,66.79
2019-05-02T16:42:57.617Z,66.80
2019-05-02T16:45:28.908Z,66.93
2019-05-02T16:48:03.278Z,66.60
2019-05-02T16:50:36.884Z,66.96
2019-05-02T16:53:08.345Z,67.01
2019-05-02T16:55:43.425Z,66.64
2019-05-02T16:58:13.794Z,66.62
2019-05-02T17:00:45.673Z,66.53
2019-05-02T17:03:24.733Z,66.64
2019-05-02T17:05:54.429Z,67.02
2019-05-02T17:08:38.535Z,67.06
2019-05-02T17:11:15.801Z,67.24
2019-05-02T17:13:47.474Z,67.55
2019-05-02T17:16:19.539Z,67.89
2019-05-02T17:18:55.046Z,67.74
2019-05-02T17:21:33.693Z,67.58
2019-05-02T17:24:02.580Z,67.93
2019-05-02T17:26:34.468Z,67.69
2019-05-02T17:29:05.853Z,67.63
2019-05-02T17:31:37.992Z,67.94
2019-05-02T17:34:11.915Z,68.00
2019-05-02T17:36:45.638Z,68.04
2019-05-02T17:39:18.757Z,68.16
2019-05-02T17:41:50.080Z,68.28
2019-05-02T17:44:24.475Z,68.28
2019-05-02T17:46:58.243Z,68.50
2019-05-02T17:49:34.900Z,68.79
2019-05-02T17:52:26.170Z,68.88
2019-05-02T17:54:57.370Z,69.02
2019-05-02T17:57:28.579Z,69.08
2019-05-02T18:00:02.704Z,69.29
2019-05-02T18:02:34.599Z,69.04
2019-05-02T18:05:06.345Z,69.55
2019-05-02T18:07:38.219Z,69.80
2019-05-02T18:10:16.679Z,69.72
2019-05-02T18:12:47.697Z,69.85
2019-05-02T18:15:18.803Z,69.89
2019-05-02T18:17:52.384Z,70.46
2019-05-02T18:20:25.403Z,70.17
2019-05-02T18:22:57.740Z,70.52
2019-05-02T18:25:29.484Z,71.06
2019-05-02T18:28:02.404Z,71.47
2019-05-02T18:30:34.770Z,71.83
2019-05-02T18:33:07.346Z,72.31
2019-05-02T18:35:45.246Z,72.24
2019-05-02T18:38:15.878Z,72.46
2019-05-02T18:40:45.215Z,72.60
2019-05-02T18:43:17.057Z,72.77
2019-05-02T18:45:48.263Z,72.52
2019-05-02T18:48:21.847Z,72.37
2019-05-02T18:50:53.437Z,72.50
2019-05-02T18:53:27.310Z,72.10
2019-05-02T18:56:01.607Z,72.47
2019-05-02T18:58:36.252Z,72.33
2019-05-02T19:01:08.394Z,71.98
2019-05-02T19:03:39.036Z,71.99
2019-05-02T19:06:11.697Z,71.79
2019-05-02T19:08:49.648Z,71.37
2019-05-02T19:11:18.768Z,71.42
2019-05-02T19:13:52.502Z,71.11
2019-05-02T19:16:27.249Z,70.80
2019-05-02T19:18:57.520Z,70.78
2019-05-02T19:21:32.072Z,70.93
2019-05-02T19:24:03.333Z,70.91
2019-05-02T19:26:35.164Z,71.14
2019-05-02T19:29:17.170Z,71.15
2019-05-02T19:31:52.296Z,70.90
2019-05-02T19:34:26.730Z,70.99
2019-05-02T19:36:57.912Z,70.82
2019-05-02T19:39:32.276Z,71.20
2019-05-02T19:42:04.112Z,70.60
2019-05-02T19:44:35.459Z,70.33
2019-05-02T19:47:08.466Z,70.29
2019-05-02T19:49:42.550Z,70.55
2019-05-02T19:52:14.048Z,70.59
2019-05-02T19:54:45.675Z,70.46
2019-05-02T19:57:24.798Z,70.39
2019-05-02T19:59:52.553Z,70.33
2019-05-02T20:02:24.202Z,70.24
2019-05-02T20:04:55.797Z,69.90
2019-05-02T20:07:27.959Z,69.45
2019-05-02T20:10:01.806Z,69.12
2019-05-02T20:12:32.846Z,69.67
2019-05-02T20:15:04.733Z,70.25
2019-05-02T20:17:36.855Z,70.61
2019-05-02T20:20:12.655Z,70.77
2019-05-02T20:22:44.638Z,71.56
2019-05-02T20:25:16.693Z,71.19
2019-05-02T20:27:48.676Z,70.21
2019-05-02T20:30:22.491Z,69.32
2019-05-02T20:32:54.212Z,68.80
2019-05-02T20:35:27.435Z,68.27
2019-05-02T20:37:58.875Z,68.17
2019-05-02T20:40:31.887Z,68.05
2019-05-02T20:43:04.045Z,68.16
2019-05-02T20:45:35.483Z,68.12
2019-05-02T20:48:06.924Z,68.39
2019-05-02T20:50:38.966Z,68.63
2019-05-02T20:53:12.739Z,68.78
2019-05-02T20:55:43.851Z,68.73
2019-05-02T20:58:15.536Z,68.94
2019-05-02T21:00:47.247Z,69.16
2019-05-02T21:03:19.022Z,69.39
2019-05-02T21:06:03.004Z,69.98
2019-05-02T21:08:45.883Z,70.98
2019-05-02T21:11:18.029Z,71.17
2019-05-02T21:13:49.406Z,71.39
2019-05-02T21:16:21.809Z,71.43
2019-05-02T21:18:53.597Z,71.11
2019-05-02T21:21:26.378Z,71.10
2019-05-02T21:23:58.906Z,70.44
2019-05-02T21:26:32.905Z,70.04
2019-05-02T21:29:04.139Z,69.96
2019-05-02T21:31:36.353Z,69.88
2019-05-02T21:34:08.339Z,69.42
2019-05-02T21:36:42.385Z,68.89
2019-05-02T21:39:13.311Z,68.66
2019-05-02T21:41:45.558Z,68.61
2019-05-02T21:44:17.441Z,68.06
2019-05-02T21:46:49.167Z,67.36
2019-05-02T21:49:44.986Z,66.52
2019-05-02T21:52:27.926Z,65.78
2019-05-02T21:55:12.347Z,65.69
2019-05-02T21:57:44.323Z,65.36
2019-05-02T22:00:29.261Z,64.85
2019-05-02T22:03:02.127Z,65.18
2019-05-02T22:05:34.113Z,64.88
2019-05-02T22:08:05.602Z,64.80
2019-05-02T22:10:37.978Z,65.02
2019-05-02T22:13:10.024Z,64.95
2019-05-02T22:15:42.030Z,64.75
2019-05-02T22:18:13.738Z,65.02
2019-05-02T22:20:47.239Z,65.15
2019-05-02T22:23:19.100Z,65.41
2019-05-02T22:25:50.283Z,65.11
2019-05-02T22:28:22.233Z,65.40
2019-05-02T22:30:54.587Z,65.71
2019-05-02T22:33:26.338Z,65.70
2019-05-02T22:35:57.902Z,65.90
2019-05-02T22:38:49.103Z,66.22
2019-05-02T22:41:22.136Z,66.15
2019-05-02T22:43:53.784Z,66.06
2019-05-02T22:46:45.599Z,66.02
2019-05-02T22:49:17.349Z,65.77
2019-05-02T22:51:49.162Z,66.37
2019-05-02T22:54:27.737Z,65.97
2019-05-02T22:56:54.465Z,66.15
2019-05-02T22:59:26.428Z,65.95
2019-05-02T23:01:58.685Z,66.24
2019-05-02T23:04:32.582Z,66.22
2019-05-02T23:07:04.147Z,66.50
2019-05-02T23:09:36.069Z,66.28
2019-05-02T23:12:08.254Z,66.36
2019-05-02T23:14:41.838Z,66.38
2019-05-02T23:17:13.820Z,66.57
2019-05-02T23:19:46.039Z,66.73
2019-05-02T23:22:17.348Z,66.74
2019-05-02T23:25:11.653Z,67.10
2019-05-02T23:27:47.562Z,67.01
2019-05-02T23:30:22.577Z,67.02
2019-05-02T23:32:54.162Z,67.23
2019-05-02T23:35:26.060Z,67.04
2019-05-02T23:37:57.968Z,66.89
2019-05-02T23:40:30.130Z,67.23
2019-05-02T23:43:02.002Z,66.92
2019-05-02T23:45:33.502Z,67.06
2019-05-02T23:48:05.162Z,67.37
2019-05-02T23:50:37.184Z,67.47
2019-05-02T23:53:08.925Z,67.25
2019-05-02T23:55:40.250Z,67.25
2019-05-02T23:58:11.985Z,67.77
